sensor_id;sensor_type;location;lat;lon;timestamp;P1;durP1;ratioP1;P2;durP2;ratioP2
836;SDS011;400;53.550;9.932;2022-12-07T00:00:52;16.02;;;13.95;;
836;SDS011;400;53.550;9.932;2022-12-07T00:03:21;15.45;;;13.55;;
836;SDS011;400;53.550;9.932;2022-12-07T00:05:47;15.63;;;13.38;;
836;SDS011;400;53.550;9.932;2022-12-07T00:08:14;16.08;;;14.38;;
836;SDS011;400;53.550;9.932;2022-12-07T00:10:41;16.83;;;14.52;;
836;SDS011;400;53.550;9.932;2022-12-07T00:13:08;17.17;;;13.13;;
836;SDS011;400;53.550;9.932;2022-12-07T00:15:34;16.75;;;12.90;;
836;SDS011;400;53.550;9.932;2022-12-07T00:18:01;16.90;;;14.02;;
836;SDS011;400;53.550;9.932;2022-12-07T00:20:29;17.35;;;13.32;;
836;SDS011;400;53.550;9.932;2022-12-07T00:22:56;17.45;;;14.18;;
836;SDS011;400;53.550;9.932;2022-12-07T00:25:23;16.88;;;14.23;;
836;SDS011;400;53.550;9.932;2022-12-07T00:27:50;14.32;;;12.82;;
836;SDS011;400;53.550;9.932;2022-12-07T00:30:18;16.40;;;14.57;;
836;SDS011;400;53.550;9.932;2022-12-07T00:32:45;16.50;;;13.73;;
836;SDS011;400;53.550;9.932;2022-12-07T00:35:11;14.50;;;12.95;;
836;SDS011;400;53.550;9.932;2022-12-07T00:37:40;14.07;;;12.68;;
836;SDS011;400;53.550;9.932;2022-12-07T00:40:07;14.55;;;12.82;;
836;SDS011;400;53.550;9.932;2022-12-07T00:42:34;14.38;;;12.75;;
836;SDS011;400;53.550;9.932;2022-12-07T00:45:02;14.85;;;12.10;;
836;SDS011;400;53.550;9.932;2022-12-07T00:47:31;15.73;;;13.40;;
836;SDS011;400;53.550;9.932;2022-12-07T00:52:34;12.75;;;11.45;;
836;SDS011;400;53.550;9.932;2022-12-07T00:55:02;12.88;;;11.45;;
836;SDS011;400;53.550;9.932;2022-12-07T00:57:30;12.15;;;10.52;;
836;SDS011;400;53.550;9.932;2022-12-07T00:59:57;12.45;;;10.65;;
836;SDS011;400;53.550;9.932;2022-12-07T01:02:25;11.82;;;10.15;;
836;SDS011;400;53.550;9.932;2022-12-07T01:04:52;11.75;;;10.55;;
836;SDS011;400;53.550;9.932;2022-12-07T01:07:19;12.45;;;11.15;;
836;SDS011;400;53.550;9.932;2022-12-07T01:09:46;12.18;;;10.60;;
836;SDS011;400;53.550;9.932;2022-12-07T01:12:14;12.25;;;10.95;;
836;SDS011;400;53.550;9.932;2022-12-07T01:14:41;10.35;;;9.07;;
836;SDS011;400;53.550;9.932;2022-12-07T01:17:08;10.95;;;9.10;;
836;SDS011;400;53.550;9.932;2022-12-07T01:19:35;14.40;;;10.82;;
836;SDS011;400;53.550;9.932;2022-12-07T01:22:01;13.23;;;10.43;;
836;SDS011;400;53.550;9.932;2022-12-07T01:24:28;13.55;;;10.40;;
836;SDS011;400;53.550;9.932;2022-12-07T01:26:55;11.77;;;9.75;;
836;SDS011;400;53.550;9.932;2022-12-07T01:29:23;14.70;;;11.57;;
836;SDS011;400;53.550;9.932;2022-12-07T01:31:50;10.82;;;9.73;;
836;SDS011;400;53.550;9.932;2022-12-07T01:34:17;13.30;;;9.23;;
836;SDS011;400;53.550;9.932;2022-12-07T01:36:44;13.38;;;9.70;;
836;SDS011;400;53.550;9.932;2022-12-07T01:39:11;11.07;;;9.25;;
836;SDS011;400;53.550;9.932;2022-12-07T01:41:38;11.30;;;10.20;;
836;SDS011;400;53.550;9.932;2022-12-07T01:44:13;13.30;;;9.60;;
836;SDS011;400;53.550;9.932;2022-12-07T01:46:44;13.52;;;10.02;;
836;SDS011;400;53.550;9.932;2022-12-07T01:49:13;11.40;;;9.70;;
836;SDS011;400;53.550;9.932;2022-12-07T01:51:43;10.80;;;8.90;;
836;SDS011;400;53.550;9.932;2022-12-07T01:54:12;12.88;;;9.20;;
836;SDS011;400;53.550;9.932;2022-12-07T01:56:41;12.45;;;8.40;;
836;SDS011;400;53.550;9.932;2022-12-07T01:59:12;10.57;;;7.25;;
836;SDS011;400;53.550;9.932;2022-12-07T02:01:40;10.38;;;9.23;;
836;SDS011;400;53.550;9.932;2022-12-07T02:04:08;11.98;;;10.23;;
836;SDS011;400;53.550;9.932;2022-12-07T02:06:35;13.15;;;8.88;;
836;SDS011;400;53.550;9.932;2022-12-07T02:09:03;11.23;;;9.20;;
836;SDS011;400;53.550;9.932;2022-12-07T02:11:30;10.55;;;8.38;;
836;SDS011;400;53.550;9.932;2022-12-07T02:13:57;10.48;;;8.27;;
836;SDS011;400;53.550;9.932;2022-12-07T02:16:29;10.40;;;8.48;;
836;SDS011;400;53.550;9.932;2022-12-07T02:19:07;9.13;;;8.20;;
836;SDS011;400;53.550;9.932;2022-12-07T02:21:57;14.80;;;8.52;;
836;SDS011;400;53.550;9.932;2022-12-07T02:24:44;8.18;;;6.18;;
836;SDS011;400;53.550;9.932;2022-12-07T02:30:12;11.98;;;7.20;;
836;SDS011;400;53.550;9.932;2022-12-07T02:32:42;7.50;;;6.07;;
836;SDS011;400;53.550;9.932;2022-12-07T02:35:15;7.28;;;5.60;;
836;SDS011;400;53.550;9.932;2022-12-07T02:37:51;8.18;;;6.40;;
836;SDS011;400;53.550;9.932;2022-12-07T02:40:25;8.15;;;6.15;;
836;SDS011;400;53.550;9.932;2022-12-07T02:42:58;8.63;;;5.68;;
836;SDS011;400;53.550;9.932;2022-12-07T02:45:31;7.40;;;5.60;;
836;SDS011;400;53.550;9.932;2022-12-07T02:48:02;9.07;;;5.18;;
836;SDS011;400;53.550;9.932;2022-12-07T02:50:31;7.03;;;4.95;;
836;SDS011;400;53.550;9.932;2022-12-07T02:52:58;4.43;;;3.80;;
836;SDS011;400;53.550;9.932;2022-12-07T02:55:26;3.30;;;3.00;;
836;SDS011;400;53.550;9.932;2022-12-07T03:00:52;4.40;;;2.75;;
836;SDS011;400;53.550;9.932;2022-12-07T03:03:26;4.63;;;3.03;;
836;SDS011;400;53.550;9.932;2022-12-07T03:05:57;7.65;;;3.35;;
836;SDS011;400;53.550;9.932;2022-12-07T03:08:35;3.97;;;2.92;;
836;SDS011;400;53.550;9.932;2022-12-07T03:11:10;5.75;;;2.63;;
836;SDS011;400;53.550;9.932;2022-12-07T03:13:45;6.40;;;2.92;;
836;SDS011;400;53.550;9.932;2022-12-07T03:16:19;2.58;;;2.38;;
836;SDS011;400;53.550;9.932;2022-12-07T03:18:50;3.80;;;1.98;;
836;SDS011;400;53.550;9.932;2022-12-07T03:21:22;2.90;;;1.90;;
836;SDS011;400;53.550;9.932;2022-12-07T03:23:53;6.20;;;2.53;;
836;SDS011;400;53.550;9.932;2022-12-07T03:26:23;2.08;;;1.88;;
836;SDS011;400;53.550;9.932;2022-12-07T03:28:57;5.85;;;2.60;;
836;SDS011;400;53.550;9.932;2022-12-07T03:31:29;3.05;;;1.90;;
836;SDS011;400;53.550;9.932;2022-12-07T03:33:58;4.93;;;2.50;;
836;SDS011;400;53.550;9.932;2022-12-07T03:36:33;3.28;;;2.40;;
836;SDS011;400;53.550;9.932;2022-12-07T03:39:08;5.53;;;2.25;;
836;SDS011;400;53.550;9.932;2022-12-07T03:41:43;4.55;;;1.85;;
836;SDS011;400;53.550;9.932;2022-12-07T03:44:10;7.97;;;1.63;;
836;SDS011;400;53.550;9.932;2022-12-07T03:46:42;2.70;;;1.75;;
836;SDS011;400;53.550;9.932;2022-12-07T03:51:46;2.67;;;2.05;;
836;SDS011;400;53.550;9.932;2022-12-07T03:54:19;4.13;;;1.80;;
836;SDS011;400;53.550;9.932;2022-12-07T03:56:50;3.15;;;1.77;;
836;SDS011;400;53.550;9.932;2022-12-07T03:59:21;3.90;;;1.55;;
836;SDS011;400;53.550;9.932;2022-12-07T04:01:52;2.03;;;1.80;;
836;SDS011;400;53.550;9.932;2022-12-07T04:04:20;5.30;;;1.65;;
836;SDS011;400;53.550;9.932;2022-12-07T04:06:47;2.13;;;2.00;;
836;SDS011;400;53.550;9.932;2022-12-07T04:09:14;2.55;;;1.50;;
836;SDS011;400;53.550;9.932;2022-12-07T04:11:42;4.57;;;1.55;;
836;SDS011;400;53.550;9.932;2022-12-07T04:14:09;2.50;;;1.55;;
836;SDS011;400;53.550;9.932;2022-12-07T04:16:45;2.75;;;1.65;;
836;SDS011;400;53.550;9.932;2022-12-07T04:19:13;3.38;;;1.95;;
836;SDS011;400;53.550;9.932;2022-12-07T04:21:41;2.17;;;1.88;;
836;SDS011;400;53.550;9.932;2022-12-07T04:24:08;1.50;;;1.23;;
836;SDS011;400;53.550;9.932;2022-12-07T04:26:36;3.17;;;1.92;;
836;SDS011;400;53.550;9.932;2022-12-07T04:29:02;3.28;;;1.70;;
836;SDS011;400;53.550;9.932;2022-12-07T04:31:29;2.72;;;1.50;;
836;SDS011;400;53.550;9.932;2022-12-07T04:33:56;3.15;;;1.80;;
836;SDS011;400;53.550;9.932;2022-12-07T04:36:24;3.17;;;2.28;;
836;SDS011;400;53.550;9.932;2022-12-07T04:38:52;2.35;;;2.17;;
836;SDS011;400;53.550;9.932;2022-12-07T04:41:20;2.97;;;1.80;;
836;SDS011;400;53.550;9.932;2022-12-07T04:43:51;2.47;;;1.88;;
836;SDS011;400;53.550;9.932;2022-12-07T04:46:19;3.22;;;1.88;;
836;SDS011;400;53.550;9.932;2022-12-07T04:48:46;2.28;;;1.90;;
836;SDS011;400;53.550;9.932;2022-12-07T04:51:13;4.32;;;2.05;;
836;SDS011;400;53.550;9.932;2022-12-07T04:53:43;2.13;;;1.73;;
836;SDS011;400;53.550;9.932;2022-12-07T04:56:09;2.38;;;1.90;;
836;SDS011;400;53.550;9.932;2022-12-07T04:58:36;2.10;;;1.90;;
836;SDS011;400;53.550;9.932;2022-12-07T05:01:03;2.75;;;1.50;;
836;SDS011;400;53.550;9.932;2022-12-07T05:03:30;2.45;;;2.25;;
836;SDS011;400;53.550;9.932;2022-12-07T05:05:57;3.13;;;1.77;;
836;SDS011;400;53.550;9.932;2022-12-07T05:08:25;2.85;;;2.03;;
836;SDS011;400;53.550;9.932;2022-12-07T05:10:53;3.42;;;2.30;;
836;SDS011;400;53.550;9.932;2022-12-07T05:13:20;2.15;;;1.95;;
836;SDS011;400;53.550;9.932;2022-12-07T05:15:47;2.55;;;2.10;;
836;SDS011;400;53.550;9.932;2022-12-07T05:18:14;7.35;;;2.40;;
836;SDS011;400;53.550;9.932;2022-12-07T05:20:42;3.92;;;2.05;;
836;SDS011;400;53.550;9.932;2022-12-07T05:23:10;2.72;;;1.90;;
836;SDS011;400;53.550;9.932;2022-12-07T05:25:37;3.55;;;2.55;;
836;SDS011;400;53.550;9.932;2022-12-07T05:28:06;2.35;;;1.92;;
836;SDS011;400;53.550;9.932;2022-12-07T05:30:33;2.75;;;2.38;;
836;SDS011;400;53.550;9.932;2022-12-07T05:33:00;7.13;;;2.20;;
836;SDS011;400;53.550;9.932;2022-12-07T05:35:28;3.22;;;2.50;;
836;SDS011;400;53.550;9.932;2022-12-07T05:37:55;2.97;;;2.03;;
836;SDS011;400;53.550;9.932;2022-12-07T05:40:23;3.55;;;2.00;;
836;SDS011;400;53.550;9.932;2022-12-07T05:42:50;5.22;;;2.28;;
836;SDS011;400;53.550;9.932;2022-12-07T05:45:18;6.53;;;2.70;;
836;SDS011;400;53.550;9.932;2022-12-07T05:47:45;2.63;;;2.22;;
836;SDS011;400;53.550;9.932;2022-12-07T05:50:14;4.32;;;2.55;;
836;SDS011;400;53.550;9.932;2022-12-07T05:52:41;2.13;;;1.80;;
836;SDS011;400;53.550;9.932;2022-12-07T05:55:08;3.35;;;2.30;;
836;SDS011;400;53.550;9.932;2022-12-07T05:57:35;7.40;;;2.75;;
836;SDS011;400;53.550;9.932;2022-12-07T06:00:03;3.00;;;2.28;;
836;SDS011;400;53.550;9.932;2022-12-07T06:02:32;2.50;;;2.25;;
836;SDS011;400;53.550;9.932;2022-12-07T06:04:59;3.65;;;2.80;;
836;SDS011;400;53.550;9.932;2022-12-07T06:07:25;3.45;;;2.45;;
836;SDS011;400;53.550;9.932;2022-12-07T06:09:52;2.80;;;2.50;;
836;SDS011;400;53.550;9.932;2022-12-07T06:12:19;3.53;;;2.13;;
836;SDS011;400;53.550;9.932;2022-12-07T06:15:00;2.20;;;2.00;;
836;SDS011;400;53.550;9.932;2022-12-07T06:17:27;3.13;;;2.83;;
836;SDS011;400;53.550;9.932;2022-12-07T06:19:56;4.97;;;2.25;;
836;SDS011;400;53.550;9.932;2022-12-07T06:22:26;4.05;;;2.50;;
836;SDS011;400;53.550;9.932;2022-12-07T06:24:53;2.80;;;2.28;;
836;SDS011;400;53.550;9.932;2022-12-07T06:27:20;6.97;;;3.70;;
836;SDS011;400;53.550;9.932;2022-12-07T06:29:47;4.07;;;2.45;;
836;SDS011;400;53.550;9.932;2022-12-07T06:32:13;6.85;;;2.33;;
836;SDS011;400;53.550;9.932;2022-12-07T06:34:42;4.28;;;2.25;;
836;SDS011;400;53.550;9.932;2022-12-07T06:37:11;2.72;;;2.33;;
836;SDS011;400;53.550;9.932;2022-12-07T06:39:40;2.25;;;2.05;;
836;SDS011;400;53.550;9.932;2022-12-07T06:42:09;3.72;;;2.30;;
836;SDS011;400;53.550;9.932;2022-12-07T06:44:39;3.47;;;2.30;;
836;SDS011;400;53.550;9.932;2022-12-07T06:47:06;3.17;;;2.45;;
836;SDS011;400;53.550;9.932;2022-12-07T06:49:36;3.45;;;2.10;;
836;SDS011;400;53.550;9.932;2022-12-07T06:52:09;3.20;;;2.25;;
836;SDS011;400;53.550;9.932;2022-12-07T06:54:41;2.88;;;1.75;;
836;SDS011;400;53.550;9.932;2022-12-07T06:57:08;5.13;;;2.25;;
836;SDS011;400;53.550;9.932;2022-12-07T06:59:35;5.20;;;1.80;;
836;SDS011;400;53.550;9.932;2022-12-07T07:02:02;2.25;;;1.90;;
836;SDS011;400;53.550;9.932;2022-12-07T07:04:29;2.60;;;1.88;;
836;SDS011;400;53.550;9.932;2022-12-07T07:06:56;3.63;;;2.70;;
836;SDS011;400;53.550;9.932;2022-12-07T07:09:33;4.80;;;3.88;;
836;SDS011;400;53.550;9.932;2022-12-07T07:12:01;3.40;;;2.10;;
836;SDS011;400;53.550;9.932;2022-12-07T07:14:31;3.45;;;2.10;;
836;SDS011;400;53.550;9.932;2022-12-07T07:16:59;6.30;;;2.50;;
836;SDS011;400;53.550;9.932;2022-12-07T07:19:32;4.80;;;2.33;;
836;SDS011;400;53.550;9.932;2022-12-07T07:22:01;3.35;;;1.88;;
836;SDS011;400;53.550;9.932;2022-12-07T07:24:28;2.17;;;1.90;;
836;SDS011;400;53.550;9.932;2022-12-07T07:27:01;3.90;;;2.80;;
836;SDS011;400;53.550;9.932;2022-12-07T07:29:34;4.60;;;2.72;;
836;SDS011;400;53.550;9.932;2022-12-07T07:32:04;3.10;;;2.78;;
836;SDS011;400;53.550;9.932;2022-12-07T07:34:34;3.58;;;2.45;;
836;SDS011;400;53.550;9.932;2022-12-07T07:37:02;3.20;;;2.10;;
836;SDS011;400;53.550;9.932;2022-12-07T07:39:29;2.22;;;1.85;;
836;SDS011;400;53.550;9.932;2022-12-07T07:41:56;5.57;;;3.08;;
836;SDS011;400;53.550;9.932;2022-12-07T07:44:25;3.08;;;2.17;;
836;SDS011;400;53.550;9.932;2022-12-07T07:46:51;2.92;;;2.03;;
836;SDS011;400;53.550;9.932;2022-12-07T07:49:18;2.13;;;1.90;;
836;SDS011;400;53.550;9.932;2022-12-07T07:51:48;4.28;;;1.77;;
836;SDS011;400;53.550;9.932;2022-12-07T07:54:15;2.50;;;1.67;;
836;SDS011;400;53.550;9.932;2022-12-07T07:56:43;3.15;;;1.35;;
836;SDS011;400;53.550;9.932;2022-12-07T07:59:11;2.85;;;2.17;;
836;SDS011;400;53.550;9.932;2022-12-07T08:01:39;2.83;;;2.20;;
836;SDS011;400;53.550;9.932;2022-12-07T08:04:07;2.75;;;1.77;;
836;SDS011;400;53.550;9.932;2022-12-07T08:06:35;3.53;;;2.08;;
836;SDS011;400;53.550;9.932;2022-12-07T08:09:08;2.35;;;1.45;;
836;SDS011;400;53.550;9.932;2022-12-07T08:11:38;2.00;;;1.90;;
836;SDS011;400;53.550;9.932;2022-12-07T08:14:05;4.72;;;2.00;;
836;SDS011;400;53.550;9.932;2022-12-07T08:16:32;2.40;;;1.70;;
836;SDS011;400;53.550;9.932;2022-12-07T08:19:04;1.40;;;1.30;;
836;SDS011;400;53.550;9.932;2022-12-07T08:21:33;6.80;;;1.77;;
836;SDS011;400;53.550;9.932;2022-12-07T08:24:05;2.47;;;1.77;;
836;SDS011;400;53.550;9.932;2022-12-07T08:26:41;3.72;;;1.33;;
836;SDS011;400;53.550;9.932;2022-12-07T08:29:12;2.65;;;1.02;;
836;SDS011;400;53.550;9.932;2022-12-07T08:31:40;3.28;;;1.15;;
836;SDS011;400;53.550;9.932;2022-12-07T08:34:09;1.65;;;1.23;;
836;SDS011;400;53.550;9.932;2022-12-07T08:36:40;2.00;;;1.50;;
836;SDS011;400;53.550;9.932;2022-12-07T08:39:07;1.35;;;1.25;;
836;SDS011;400;53.550;9.932;2022-12-07T08:41:34;2.90;;;1.45;;
836;SDS011;400;53.550;9.932;2022-12-07T08:44:01;1.98;;;1.30;;
836;SDS011;400;53.550;9.932;2022-12-07T08:46:28;3.63;;;1.52;;
836;SDS011;400;53.550;9.932;2022-12-07T08:49:05;1.73;;;1.63;;
836;SDS011;400;53.550;9.932;2022-12-07T08:51:38;4.10;;;1.70;;
836;SDS011;400;53.550;9.932;2022-12-07T08:54:06;1.90;;;1.73;;
836;SDS011;400;53.550;9.932;2022-12-07T08:56:36;2.08;;;1.40;;
836;SDS011;400;53.550;9.932;2022-12-07T08:59:03;10.00;;;1.83;;
836;SDS011;400;53.550;9.932;2022-12-07T09:01:31;2.88;;;2.15;;
836;SDS011;400;53.550;9.932;2022-12-07T09:03:59;1.85;;;1.73;;
836;SDS011;400;53.550;9.932;2022-12-07T09:06:27;2.72;;;1.63;;
836;SDS011;400;53.550;9.932;2022-12-07T09:08:55;3.60;;;2.50;;
836;SDS011;400;53.550;9.932;2022-12-07T09:11:24;28.83;;;21.17;;
836;SDS011;400;53.550;9.932;2022-12-07T09:13:51;8.45;;;5.68;;
836;SDS011;400;53.550;9.932;2022-12-07T09:16:19;4.25;;;1.80;;
836;SDS011;400;53.550;9.932;2022-12-07T09:18:53;2.00;;;1.80;;
836;SDS011;400;53.550;9.932;2022-12-07T09:21:23;2.38;;;1.60;;
836;SDS011;400;53.550;9.932;2022-12-07T09:23:51;4.25;;;1.55;;
836;SDS011;400;53.550;9.932;2022-12-07T09:26:18;4.70;;;1.77;;
836;SDS011;400;53.550;9.932;2022-12-07T09:28:44;2.28;;;1.50;;
836;SDS011;400;53.550;9.932;2022-12-07T09:31:13;3.60;;;1.40;;
836;SDS011;400;53.550;9.932;2022-12-07T09:33:40;7.43;;;2.05;;
836;SDS011;400;53.550;9.932;2022-12-07T09:36:07;6.63;;;1.80;;
836;SDS011;400;53.550;9.932;2022-12-07T09:38:36;2.55;;;1.15;;
836;SDS011;400;53.550;9.932;2022-12-07T09:41:10;3.63;;;1.10;;
836;SDS011;400;53.550;9.932;2022-12-07T09:43:41;4.28;;;1.73;;
836;SDS011;400;53.550;9.932;2022-12-07T09:46:13;7.70;;;1.75;;
836;SDS011;400;53.550;9.932;2022-12-07T09:48:45;4.82;;;1.38;;
836;SDS011;400;53.550;9.932;2022-12-07T09:51:13;3.90;;;1.90;;
836;SDS011;400;53.550;9.932;2022-12-07T09:53:42;4.20;;;1.45;;
836;SDS011;400;53.550;9.932;2022-12-07T09:56:12;1.95;;;1.08;;
836;SDS011;400;53.550;9.932;2022-12-07T09:58:41;4.28;;;1.50;;
836;SDS011;400;53.550;9.932;2022-12-07T10:01:09;4.15;;;1.45;;
836;SDS011;400;53.550;9.932;2022-12-07T10:03:39;3.60;;;1.42;;
836;SDS011;400;53.550;9.932;2022-12-07T10:06:10;5.35;;;1.30;;
836;SDS011;400;53.550;9.932;2022-12-07T10:08:39;2.45;;;1.70;;
836;SDS011;400;53.550;9.932;2022-12-07T10:11:08;4.55;;;3.75;;
836;SDS011;400;53.550;9.932;2022-12-07T10:13:39;4.22;;;1.88;;
836;SDS011;400;53.550;9.932;2022-12-07T10:16:24;4.75;;;2.85;;
836;SDS011;400;53.550;9.932;2022-12-07T10:19:17;5.80;;;1.20;;
836;SDS011;400;53.550;9.932;2022-12-07T10:22:05;4.38;;;0.90;;
836;SDS011;400;53.550;9.932;2022-12-07T10:24:41;2.10;;;0.52;;
836;SDS011;400;53.550;9.932;2022-12-07T10:27:17;3.00;;;0.90;;
836;SDS011;400;53.550;9.932;2022-12-07T10:29:51;1.98;;;1.20;;
836;SDS011;400;53.550;9.932;2022-12-07T10:32:27;3.28;;;0.82;;
836;SDS011;400;53.550;9.932;2022-12-07T10:35:18;3.42;;;0.82;;
836;SDS011;400;53.550;9.932;2022-12-07T10:37:47;3.25;;;1.05;;
836;SDS011;400;53.550;9.932;2022-12-07T10:40:25;3.15;;;1.10;;
836;SDS011;400;53.550;9.932;2022-12-07T10:43:05;3.33;;;1.17;;
836;SDS011;400;53.550;9.932;2022-12-07T10:46:07;3.03;;;0.70;;
836;SDS011;400;53.550;9.932;2022-12-07T10:48:58;4.63;;;1.17;;
836;SDS011;400;53.550;9.932;2022-12-07T10:51:37;2.78;;;0.85;;
836;SDS011;400;53.550;9.932;2022-12-07T10:54:26;1.77;;;1.10;;
836;SDS011;400;53.550;9.932;2022-12-07T10:57:27;3.55;;;0.70;;
836;SDS011;400;53.550;9.932;2022-12-07T11:00:19;4.03;;;1.13;;
836;SDS011;400;53.550;9.932;2022-12-07T11:02:59;3.42;;;3.17;;
836;SDS011;400;53.550;9.932;2022-12-07T11:05:42;2.80;;;1.35;;
836;SDS011;400;53.550;9.932;2022-12-07T11:08:18;1.92;;;0.88;;
836;SDS011;400;53.550;9.932;2022-12-07T11:11:04;3.53;;;1.35;;
836;SDS011;400;53.550;9.932;2022-12-07T11:13:37;2.20;;;1.45;;
836;SDS011;400;53.550;9.932;2022-12-07T11:19:06;1.85;;;1.00;;
836;SDS011;400;53.550;9.932;2022-12-07T11:21:54;1.45;;;1.05;;
836;SDS011;400;53.550;9.932;2022-12-07T11:24:25;2.13;;;1.25;;
836;SDS011;400;53.550;9.932;2022-12-07T11:27:03;7.20;;;1.88;;
836;SDS011;400;53.550;9.932;2022-12-07T11:29:47;2.97;;;1.27;;
836;SDS011;400;53.550;9.932;2022-12-07T11:32:24;5.88;;;1.17;;
836;SDS011;400;53.550;9.932;2022-12-07T11:35:10;2.72;;;1.42;;
836;SDS011;400;53.550;9.932;2022-12-07T11:37:51;3.92;;;1.20;;
836;SDS011;400;53.550;9.932;2022-12-07T11:40:34;2.25;;;2.10;;
836;SDS011;400;53.550;9.932;2022-12-07T11:43:05;4.40;;;1.17;;
836;SDS011;400;53.550;9.932;2022-12-07T11:45:47;3.05;;;1.10;;
836;SDS011;400;53.550;9.932;2022-12-07T11:48:35;3.97;;;1.35;;
836;SDS011;400;53.550;9.932;2022-12-07T11:51:28;3.42;;;1.30;;
836;SDS011;400;53.550;9.932;2022-12-07T11:54:10;8.75;;;2.15;;
836;SDS011;400;53.550;9.932;2022-12-07T11:56:49;4.43;;;1.30;;
836;SDS011;400;53.550;9.932;2022-12-07T11:59:25;4.43;;;1.25;;
836;SDS011;400;53.550;9.932;2022-12-07T12:02:07;1.60;;;0.90;;
836;SDS011;400;53.550;9.932;2022-12-07T12:04:46;3.10;;;0.93;;
836;SDS011;400;53.550;9.932;2022-12-07T12:07:24;3.25;;;1.17;;
836;SDS011;400;53.550;9.932;2022-12-07T12:09:57;4.28;;;0.95;;
836;SDS011;400;53.550;9.932;2022-12-07T12:12:36;3.65;;;0.90;;
836;SDS011;400;53.550;9.932;2022-12-07T12:15:31;2.42;;;1.40;;
836;SDS011;400;53.550;9.932;2022-12-07T12:18:23;3.40;;;1.25;;
836;SDS011;400;53.550;9.932;2022-12-07T12:21:19;2.83;;;1.70;;
836;SDS011;400;53.550;9.932;2022-12-07T12:23:58;4.85;;;1.00;;
836;SDS011;400;53.550;9.932;2022-12-07T12:26:31;2.67;;;1.45;;
836;SDS011;400;53.550;9.932;2022-12-07T12:29:04;4.93;;;1.25;;
836;SDS011;400;53.550;9.932;2022-12-07T12:32:04;3.38;;;1.45;;
836;SDS011;400;53.550;9.932;2022-12-07T12:34:38;1.45;;;0.82;;
836;SDS011;400;53.550;9.932;2022-12-07T12:37:18;5.68;;;2.22;;
836;SDS011;400;53.550;9.932;2022-12-07T12:49:30;2.38;;;1.48;;
836;SDS011;400;53.550;9.932;2022-12-07T12:55:11;3.78;;;1.30;;
836;SDS011;400;53.550;9.932;2022-12-07T12:57:46;4.82;;;1.33;;
836;SDS011;400;53.550;9.932;2022-12-07T13:00:24;5.05;;;1.50;;
836;SDS011;400;53.550;9.932;2022-12-07T13:02:54;4.97;;;2.58;;
836;SDS011;400;53.550;9.932;2022-12-07T13:05:26;2.75;;;1.05;;
836;SDS011;400;53.550;9.932;2022-12-07T13:08:00;4.18;;;1.08;;
836;SDS011;400;53.550;9.932;2022-12-07T13:10:41;3.90;;;1.40;;
836;SDS011;400;53.550;9.932;2022-12-07T13:13:30;7.60;;;1.80;;
836;SDS011;400;53.550;9.932;2022-12-07T13:22:34;6.45;;;2.25;;
836;SDS011;400;53.550;9.932;2022-12-07T13:25:19;5.53;;;1.27;;
836;SDS011;400;53.550;9.932;2022-12-07T13:27:57;5.38;;;1.33;;
836;SDS011;400;53.550;9.932;2022-12-07T13:30:28;5.57;;;1.55;;
836;SDS011;400;53.550;9.932;2022-12-07T13:32:58;3.50;;;1.25;;
836;SDS011;400;53.550;9.932;2022-12-07T13:35:30;3.80;;;1.13;;
836;SDS011;400;53.550;9.932;2022-12-07T13:38:00;2.33;;;1.23;;
836;SDS011;400;53.550;9.932;2022-12-07T13:40:30;4.95;;;1.50;;
836;SDS011;400;53.550;9.932;2022-12-07T13:42:58;4.32;;;1.85;;
836;SDS011;400;53.550;9.932;2022-12-07T13:45:26;3.42;;;1.10;;
836;SDS011;400;53.550;9.932;2022-12-07T13:48:09;3.80;;;1.45;;
836;SDS011;400;53.550;9.932;2022-12-07T13:50:48;4.47;;;0.90;;
836;SDS011;400;53.550;9.932;2022-12-07T13:53:19;6.95;;;2.33;;
836;SDS011;400;53.550;9.932;2022-12-07T13:55:47;5.57;;;1.60;;
836;SDS011;400;53.550;9.932;2022-12-07T13:58:14;6.88;;;1.52;;
836;SDS011;400;53.550;9.932;2022-12-07T14:00:41;5.03;;;1.27;;
836;SDS011;400;53.550;9.932;2022-12-07T14:03:25;1.90;;;1.10;;
836;SDS011;400;53.550;9.932;2022-12-07T14:06:04;4.90;;;0.90;;
836;SDS011;400;53.550;9.932;2022-12-07T14:08:47;1.95;;;0.95;;
836;SDS011;400;53.550;9.932;2022-12-07T14:11:17;5.53;;;1.63;;
836;SDS011;400;53.550;9.932;2022-12-07T14:13:56;2.67;;;1.00;;
836;SDS011;400;53.550;9.932;2022-12-07T14:16:25;1.67;;;0.70;;
836;SDS011;400;53.550;9.932;2022-12-07T14:18:55;4.40;;;1.13;;
836;SDS011;400;53.550;9.932;2022-12-07T14:21:24;2.38;;;0.82;;
836;SDS011;400;53.550;9.932;2022-12-07T14:26:56;7.60;;;1.02;;
836;SDS011;400;53.550;9.932;2022-12-07T14:29:30;3.38;;;0.70;;
836;SDS011;400;53.550;9.932;2022-12-07T14:32:18;3.17;;;0.90;;
836;SDS011;400;53.550;9.932;2022-12-07T14:34:59;5.20;;;1.30;;
836;SDS011;400;53.550;9.932;2022-12-07T14:37:27;4.72;;;1.08;;
836;SDS011;400;53.550;9.932;2022-12-07T14:39:55;1.85;;;0.80;;
836;SDS011;400;53.550;9.932;2022-12-07T14:42:24;3.97;;;1.13;;
836;SDS011;400;53.550;9.932;2022-12-07T14:44:55;4.18;;;1.05;;
836;SDS011;400;53.550;9.932;2022-12-07T14:47:22;3.78;;;0.95;;
836;SDS011;400;53.550;9.932;2022-12-07T14:49:50;5.53;;;1.42;;
836;SDS011;400;53.550;9.932;2022-12-07T14:52:26;2.53;;;0.75;;
836;SDS011;400;53.550;9.932;2022-12-07T14:54:58;3.45;;;1.40;;
836;SDS011;400;53.550;9.932;2022-12-07T14:57:31;6.60;;;1.95;;
836;SDS011;400;53.550;9.932;2022-12-07T15:00:00;9.07;;;1.67;;
836;SDS011;400;53.550;9.932;2022-12-07T15:02:31;2.67;;;1.10;;
836;SDS011;400;53.550;9.932;2022-12-07T15:05:03;2.40;;;1.40;;
836;SDS011;400;53.550;9.932;2022-12-07T15:07:32;2.78;;;1.13;;
836;SDS011;400;53.550;9.932;2022-12-07T15:10:02;1.80;;;0.95;;
836;SDS011;400;53.550;9.932;2022-12-07T15:12:39;3.20;;;1.48;;
836;SDS011;400;53.550;9.932;2022-12-07T15:15:12;9.77;;;1.83;;
836;SDS011;400;53.550;9.932;2022-12-07T15:17:49;4.57;;;1.27;;
836;SDS011;400;53.550;9.932;2022-12-07T15:20:20;2.70;;;1.00;;
836;SDS011;400;53.550;9.932;2022-12-07T15:22:48;4.05;;;1.70;;
836;SDS011;400;53.550;9.932;2022-12-07T15:25:17;3.78;;;1.10;;
836;SDS011;400;53.550;9.932;2022-12-07T15:27:45;6.15;;;1.55;;
836;SDS011;400;53.550;9.932;2022-12-07T15:30:16;2.50;;;1.10;;
836;SDS011;400;53.550;9.932;2022-12-07T15:32:43;3.78;;;1.77;;
836;SDS011;400;53.550;9.932;2022-12-07T15:35:20;2.58;;;1.60;;
836;SDS011;400;53.550;9.932;2022-12-07T15:37:48;4.57;;;1.77;;
836;SDS011;400;53.550;9.932;2022-12-07T15:40:15;3.10;;;1.52;;
836;SDS011;400;53.550;9.932;2022-12-07T15:42:42;3.53;;;1.65;;
836;SDS011;400;53.550;9.932;2022-12-07T15:45:09;5.97;;;2.22;;
836;SDS011;400;53.550;9.932;2022-12-07T15:47:36;3.80;;;1.65;;
836;SDS011;400;53.550;9.932;2022-12-07T15:50:07;3.78;;;1.77;;
836;SDS011;400;53.550;9.932;2022-12-07T15:52:39;3.00;;;1.40;;
836;SDS011;400;53.550;9.932;2022-12-07T15:55:17;2.90;;;1.63;;
836;SDS011;400;53.550;9.932;2022-12-07T15:57:46;5.70;;;1.48;;
836;SDS011;400;53.550;9.932;2022-12-07T16:00:18;4.10;;;1.70;;
836;SDS011;400;53.550;9.932;2022-12-07T16:02:51;1.90;;;1.10;;
836;SDS011;400;53.550;9.932;2022-12-07T16:05:24;2.10;;;1.48;;
836;SDS011;400;53.550;9.932;2022-12-07T16:07:55;2.33;;;1.77;;
836;SDS011;400;53.550;9.932;2022-12-07T16:10:26;9.27;;;2.20;;
836;SDS011;400;53.550;9.932;2022-12-07T16:12:54;6.50;;;1.60;;
836;SDS011;400;53.550;9.932;2022-12-07T16:15:24;2.92;;;1.50;;
836;SDS011;400;53.550;9.932;2022-12-07T16:17:53;4.45;;;2.55;;
836;SDS011;400;53.550;9.932;2022-12-07T16:20:21;6.28;;;2.40;;
836;SDS011;400;53.550;9.932;2022-12-07T16:22:52;4.32;;;2.55;;
836;SDS011;400;53.550;9.932;2022-12-07T16:25:30;3.35;;;1.45;;
836;SDS011;400;53.550;9.932;2022-12-07T16:28:02;5.07;;;1.60;;
836;SDS011;400;53.550;9.932;2022-12-07T16:30:33;2.60;;;1.52;;
836;SDS011;400;53.550;9.932;2022-12-07T16:33:03;5.13;;;1.90;;
836;SDS011;400;53.550;9.932;2022-12-07T16:35:30;4.30;;;2.35;;
836;SDS011;400;53.550;9.932;2022-12-07T16:37:58;4.35;;;2.53;;
836;SDS011;400;53.550;9.932;2022-12-07T16:40:27;5.07;;;2.13;;
836;SDS011;400;53.550;9.932;2022-12-07T16:43:00;4.25;;;1.65;;
836;SDS011;400;53.550;9.932;2022-12-07T16:45:30;3.28;;;2.33;;